createdAt,value
2023-05-01T00:03:14.302Z,11.52
2023-05-01T00:08:16.057Z,12.65
2023-05-01T00:13:21.728Z,17.23
2023-05-01T00:18:23.218Z,16.83
2023-05-01T00:23:24.663Z,16.88
2023-05-01T00:28:26.128Z,18.23
2023-05-01T00:33:27.584Z,15.05
2023-05-01T00:38:29.101Z,16.83
2023-05-01T00:43:30.555Z,19.55
2023-05-01T00:48:32.030Z,17.35
2023-05-01T00:53:33.765Z,15.35
2023-05-01T00:58:35.236Z,15.95
2023-05-01T01:03:36.680Z,18.60
2023-05-01T01:08:43.595Z,21.35
2023-05-01T01:14:06.659Z,25.20
2023-05-01T01:19:42.979Z,23.17
2023-05-01T01:25:06.312Z,26.98
2023-05-01T01:30:34.976Z,31.50
2023-05-01T01:40:45.653Z,28.08
2023-05-01T01:50:49.060Z,26.65
2023-05-01T01:55:50.558Z,29.80
2023-05-01T02:00:52.584Z,27.55
2023-05-01T02:05:54.823Z,25.83
2023-05-01T02:11:01.736Z,33.95
2023-05-01T02:16:04.057Z,35.45
2023-05-01T02:21:05.548Z,37.85
2023-05-01T02:26:07.094Z,29.02
2023-05-01T02:31:09.587Z,26.45
2023-05-01T02:36:13.216Z,26.92
2023-05-01T02:41:15.036Z,28.67
2023-05-01T02:46:16.555Z,27.70
2023-05-01T02:51:18.358Z,20.95
2023-05-01T02:56:19.831Z,19.55
2023-05-01T03:01:21.378Z,23.33
2023-05-01T03:06:22.886Z,27.70
2023-05-01T03:11:24.495Z,22.60
2023-05-01T03:16:26.054Z,22.98
2023-05-01T03:21:27.681Z,21.60
2023-05-01T03:26:30.007Z,24.00
2023-05-01T03:31:31.548Z,22.80
2023-05-01T03:36:33.853Z,18.77
2023-05-01T03:41:35.520Z,22.05
2023-05-01T03:46:37.153Z,22.55
2023-05-01T03:51:38.819Z,21.70
2023-05-01T03:56:40.366Z,22.50
2023-05-01T04:01:42.079Z,20.95
2023-05-01T04:06:43.617Z,25.10
2023-05-01T04:11:46.664Z,23.08
2023-05-01T04:16:48.119Z,24.70
2023-05-01T04:21:49.579Z,24.85
2023-05-01T04:26:51.058Z,20.65
2023-05-01T04:31:52.600Z,22.08
2023-05-01T04:36:54.153Z,20.67
2023-05-01T04:41:55.673Z,20.20
2023-05-01T04:46:57.183Z,23.48
2023-05-01T04:51:58.688Z,23.13
2023-05-01T04:57:00.157Z,21.48
2023-05-01T05:02:01.715Z,22.67
2023-05-01T05:07:03.213Z,20.88
2023-05-01T05:12:05.229Z,20.98
2023-05-01T05:17:06.701Z,21.90
2023-05-01T05:22:08.314Z,19.45
2023-05-01T05:27:09.794Z,22.55
2023-05-01T05:32:11.512Z,22.05
2023-05-01T05:37:13.004Z,17.10
2023-05-01T05:42:14.484Z,17.50
2023-05-01T05:47:15.941Z,19.17
2023-05-01T05:52:17.550Z,14.55
2023-05-01T05:57:19.008Z,19.08
2023-05-01T06:02:20.558Z,19.10
2023-05-01T06:07:23.362Z,20.65
2023-05-01T06:12:24.892Z,18.52
2023-05-01T06:17:26.890Z,17.17
2023-05-01T06:22:28.414Z,16.02
2023-05-01T06:27:29.881Z,11.98
2023-05-01T06:32:31.365Z,16.88
2023-05-01T06:37:32.848Z,17.35
2023-05-01T06:42:34.297Z,15.68
2023-05-01T06:47:35.833Z,29.33
2023-05-01T06:52:37.374Z,13.48
2023-05-01T06:57:39.994Z,17.55
2023-05-01T07:07:50.510Z,15.68
2023-05-01T07:12:55.702Z,14.73
2023-05-01T07:17:58.295Z,20.35
2023-05-01T07:28:04.420Z,15.00
2023-05-01T07:33:05.969Z,16.17
2023-05-01T07:38:07.914Z,10.90
2023-05-01T07:43:11.959Z,16.35
2023-05-01T07:48:13.609Z,10.95
2023-05-01T07:53:15.086Z,11.23
2023-05-01T07:58:19.391Z,13.65
2023-05-01T08:03:20.926Z,11.75
2023-05-01T08:08:22.525Z,14.32
2023-05-01T08:13:23.982Z,10.85
2023-05-01T08:18:25.507Z,13.55
2023-05-01T08:23:26.956Z,14.55
2023-05-01T08:28:28.422Z,13.95
2023-05-01T08:33:29.942Z,8.98
2023-05-01T08:38:31.441Z,14.10
2023-05-01T08:43:33.071Z,14.48
2023-05-01T08:48:34.569Z,11.45
2023-05-01T08:53:36.090Z,11.38
2023-05-01T08:58:37.580Z,10.23
2023-05-01T09:03:39.072Z,14.23
2023-05-01T09:08:40.604Z,9.35
2023-05-01T09:13:42.066Z,11.05
2023-05-01T09:18:43.540Z,13.85
2023-05-01T09:23:45.010Z,11.27
2023-05-01T09:28:47.174Z,15.25
2023-05-01T09:33:55.387Z,12.15
2023-05-01T09:38:57.448Z,10.15
2023-05-01T09:43:59.029Z,12.50
2023-05-01T09:49:01.568Z,14.20
2023-05-01T09:54:04.805Z,12.00
2023-05-01T09:59:17.124Z,17.33
2023-05-01T10:04:18.672Z,13.55
2023-05-01T10:09:29.250Z,10.68
2023-05-01T10:14:33.754Z,11.23
2023-05-01T10:19:35.220Z,10.52
2023-05-01T10:24:36.755Z,16.15
2023-05-01T10:29:38.437Z,13.20
2023-05-01T10:34:42.573Z,16.38
2023-05-01T10:39:44.037Z,12.43
2023-05-01T10:44:47.901Z,12.60
2023-05-01T10:50:08.741Z,13.40
2023-05-01T10:55:32.733Z,14.00
2023-05-01T11:00:34.610Z,15.00
2023-05-01T11:06:02.254Z,19.02
2023-05-01T11:11:26.883Z,13.20
2023-05-01T11:16:43.742Z,10.93
2023-05-01T11:21:45.457Z,13.90
2023-05-01T11:26:47.281Z,14.98
2023-05-01T11:31:48.960Z,13.82
2023-05-01T11:36:51.108Z,13.93
2023-05-01T11:42:05.840Z,16.05
2023-05-01T11:47:09.190Z,10.23
2023-05-01T11:52:10.681Z,14.52
2023-05-01T11:57:12.327Z,11.75
2023-05-01T12:02:20.340Z,13.40
2023-05-01T12:07:22.739Z,13.32
2023-05-01T12:12:24.358Z,12.75
2023-05-01T12:17:26.055Z,11.02
2023-05-01T12:22:29.470Z,16.85
2023-05-01T12:27:32.896Z,14.80
2023-05-01T12:32:34.568Z,12.65
2023-05-01T12:37:36.194Z,13.75
2023-05-01T12:42:37.700Z,11.95
2023-05-01T12:47:39.292Z,12.15
2023-05-01T12:52:40.827Z,13.75
2023-05-01T12:57:53.023Z,16.02
2023-05-01T13:02:54.546Z,18.27
2023-05-01T13:07:56.037Z,14.50
2023-05-01T13:12:57.489Z,15.27
2023-05-01T13:18:05.374Z,17.50
2023-05-01T13:23:10.832Z,14.70
2023-05-01T13:28:17.768Z,11.77
2023-05-01T13:33:19.215Z,12.35
2023-05-01T13:38:23.375Z,15.35
2023-05-01T13:43:24.843Z,18.50
2023-05-01T13:48:26.353Z,12.60
2023-05-01T13:53:28.377Z,21.67
2023-05-01T14:03:41.496Z,9.55
2023-05-01T14:08:43.426Z,8.73
2023-05-01T14:13:45.901Z,13.40
2023-05-01T14:18:47.874Z,16.50
2023-05-01T14:23:49.554Z,18.38
2023-05-01T14:28:51.057Z,16.73
2023-05-01T14:33:54.767Z,15.20
2023-05-01T14:38:57.036Z,16.85
2023-05-01T14:43:58.511Z,16.45
2023-05-01T14:49:00.705Z,13.00
2023-05-01T14:54:02.221Z,10.57
2023-05-01T14:59:04.137Z,13.85
2023-05-01T15:04:10.936Z,15.25
2023-05-01T15:09:12.734Z,12.57
2023-05-01T15:14:14.192Z,12.63
2023-05-01T15:19:15.697Z,13.90
2023-05-01T15:24:19.471Z,14.30
2023-05-01T15:29:20.938Z,14.23
2023-05-01T15:34:22.411Z,18.85
2023-05-01T15:39:23.888Z,16.60
2023-05-01T15:44:26.800Z,16.27
2023-05-01T15:49:28.311Z,11.30
2023-05-01T15:54:29.774Z,12.63
2023-05-01T15:59:31.252Z,13.55
2023-05-01T16:04:32.936Z,12.13
2023-05-01T16:09:34.432Z,14.93
2023-05-01T16:14:36.332Z,16.58
2023-05-01T16:19:37.821Z,14.70
2023-05-01T16:24:39.483Z,18.42
2023-05-01T16:29:40.931Z,16.13
2023-05-01T16:34:42.477Z,11.50
2023-05-01T16:39:43.947Z,11.45
2023-05-01T16:44:45.409Z,16.02
2023-05-01T16:49:46.904Z,15.48
2023-05-01T16:54:48.393Z,11.80
2023-05-01T16:59:49.865Z,14.93
2023-05-01T17:04:51.758Z,17.42
2023-05-01T17:09:53.387Z,13.90
2023-05-01T17:14:54.934Z,14.15
2023-05-01T17:19:57.626Z,14.05
2023-05-01T17:25:02.205Z,18.15
2023-05-01T17:30:04.706Z,17.67
2023-05-01T17:40:08.882Z,19.25
2023-05-01T17:45:10.988Z,16.88
2023-05-01T17:50:13.309Z,16.85
2023-05-01T17:55:17.166Z,18.17
2023-05-01T18:00:19.753Z,20.55
2023-05-01T18:05:22.473Z,23.67
2023-05-01T18:10:24.163Z,19.02
2023-05-01T18:15:28.089Z,23.48
2023-05-01T18:20:29.782Z,20.42
2023-05-01T18:25:32.511Z,24.52
2023-05-01T18:30:35.495Z,20.65
2023-05-01T18:35:41.838Z,20.67
2023-05-01T18:40:43.614Z,19.75
2023-05-01T18:45:45.103Z,20.13
2023-05-01T18:50:54.259Z,20.80
2023-05-01T18:56:02.680Z,20.75
2023-05-01T19:01:04.125Z,19.73
2023-05-01T19:06:05.733Z,18.92
2023-05-01T19:11:07.264Z,25.30
2023-05-01T19:16:08.766Z,21.30
2023-05-01T19:21:11.018Z,22.95
2023-05-01T19:26:13.666Z,18.92
2023-05-01T19:36:17.671Z,19.90
2023-05-01T19:41:19.126Z,18.70
2023-05-01T19:46:20.681Z,18.60
2023-05-01T19:51:22.157Z,21.42
2023-05-01T19:56:24.845Z,20.92
2023-05-01T20:06:27.827Z,19.88
2023-05-01T20:11:29.413Z,18.75
2023-05-01T20:16:30.946Z,28.42
2023-05-01T20:21:32.734Z,26.00
2023-05-01T20:26:34.207Z,21.92
2023-05-01T20:31:35.679Z,23.85
2023-05-01T20:36:37.575Z,23.40
2023-05-01T20:41:39.031Z,27.20
2023-05-01T20:46:40.494Z,26.55
2023-05-01T20:51:41.932Z,26.70
2023-05-01T20:56:43.390Z,22.83
2023-05-01T21:01:44.859Z,24.55
2023-05-01T21:06:46.752Z,28.38
2023-05-01T21:11:48.243Z,29.00
2023-05-01T21:16:49.744Z,32.30
2023-05-01T21:21:54.780Z,36.42
2023-05-01T21:26:56.615Z,27.88
2023-05-01T21:32:03.723Z,36.78
2023-05-01T21:37:05.259Z,29.98
2023-05-01T21:42:06.710Z,22.08
2023-05-01T21:47:08.852Z,16.58
2023-05-01T21:52:11.322Z,21.45
2023-05-01T21:57:12.823Z,21.83
2023-05-01T22:02:14.305Z,13.15
2023-05-01T22:07:16.518Z,11.65
2023-05-01T22:12:17.982Z,10.60
2023-05-01T22:17:24.414Z,9.90
2023-05-01T22:22:25.960Z,11.02
2023-05-01T22:27:27.428Z,18.17
2023-05-01T22:32:28.989Z,11.27
2023-05-01T22:37:30.492Z,7.45
2023-05-01T22:42:31.941Z,12.20
2023-05-01T22:47:33.474Z,12.85
2023-05-01T22:52:34.949Z,12.52
2023-05-01T22:57:36.409Z,15.20
2023-05-01T23:02:37.930Z,10.25
2023-05-01T23:07:39.723Z,12.27
2023-05-01T23:12:44.377Z,12.73
2023-05-01T23:17:46.080Z,15.43
2023-05-01T23:22:47.590Z,15.05
2023-05-01T23:27:51.011Z,14.80
2023-05-01T23:32:52.561Z,19.13
2023-05-01T23:37:54.246Z,15.80
2023-05-01T23:42:55.698Z,15.60
2023-05-01T23:47:57.799Z,14.40
2023-05-01T23:52:59.567Z,6.05
2023-05-01T23:58:01.420Z,23.58
